createdAt,value
2018-05-08T00:02:02.418Z,101556.63
2018-05-08T00:04:30.029Z,101556.65
2018-05-08T00:06:58.298Z,101555.23
2018-05-08T00:09:26.983Z,101544.34
2018-05-08T00:11:55.564Z,101548.23
2018-05-08T00:14:23.133Z,101540.88
2018-05-08T00:16:50.752Z,101543.28
2018-05-08T00:19:18.307Z,101541.41
2018-05-08T00:21:46.209Z,101542.86
2018-05-08T00:24:14.476Z,101535.88
2018-05-08T00:26:42.876Z,101531.86
2018-05-08T00:29:12.394Z,101534.45
2018-05-08T00:31:40.104Z,101534.87
2018-05-08T00:34:07.681Z,101532.82
2018-05-08T00:36:35.284Z,101527.87
2018-05-08T00:39:02.936Z,101524.58
2018-05-08T00:41:31.412Z,101528.99
2018-05-08T00:44:02.228Z,101525.50
2018-05-08T00:46:30.485Z,101524.27
2018-05-08T00:48:58.030Z,101514.20
2018-05-08T00:51:25.617Z,101508.13
2018-05-08T00:53:53.208Z,101512.58
2018-05-08T00:56:21.147Z,101509.45
2018-05-08T00:58:50.376Z,101511.29
2018-05-08T01:01:18.917Z,101513.62
2018-05-08T01:03:47.413Z,101508.35
2018-05-08T01:06:14.988Z,101506.95
2018-05-08T01:08:42.556Z,101498.27
2018-05-08T01:11:10.116Z,101500.52
2018-05-08T01:13:37.894Z,101491.30
2018-05-08T01:16:06.716Z,101493.94
2018-05-08T01:18:36.051Z,101501.73
2018-05-08T01:21:03.646Z,101494.04
2018-05-08T01:23:31.237Z,101485.78
2018-05-08T01:25:58.795Z,101488.80
2018-05-08T01:28:26.349Z,101489.67
2018-05-08T01:30:53.987Z,101486.12
2018-05-08T01:33:22.965Z,101480.48
2018-05-08T01:35:52.346Z,101478.83
2018-05-08T01:38:21.894Z,101468.84
2018-05-08T01:40:49.507Z,101464.03
2018-05-08T01:43:17.209Z,101455.75
2018-05-08T01:45:44.829Z,101458.73
2018-05-08T01:48:12.504Z,101460.09
2018-05-08T01:50:40.160Z,101454.02
2018-05-08T01:53:07.876Z,101454.06
2018-05-08T01:55:36.002Z,101451.02
2018-05-08T01:58:03.600Z,101449.12
2018-05-08T02:00:31.184Z,101446.55
2018-05-08T02:02:58.784Z,101439.16
2018-05-08T02:05:26.685Z,101438.62
2018-05-08T02:07:55.572Z,101436.00
2018-05-08T02:10:23.416Z,101429.39
2018-05-08T02:12:51.965Z,101426.94
2018-05-08T02:15:19.578Z,101426.39
2018-05-08T02:17:47.199Z,101420.66
2018-05-08T02:20:15.015Z,101428.49
2018-05-08T02:22:43.726Z,101419.34
2018-05-08T02:25:11.432Z,101416.22
2018-05-08T02:27:40.379Z,101416.63
2018-05-08T02:30:10.277Z,101414.02
2018-05-08T02:32:37.836Z,101409.67
2018-05-08T02:35:05.392Z,101402.38
2018-05-08T02:37:32.969Z,101406.41
2018-05-08T02:40:01.624Z,101398.69
2018-05-08T02:42:30.412Z,101392.16
2018-05-08T02:44:59.623Z,101392.62
2018-05-08T02:47:28.090Z,101391.72
2018-05-08T02:49:55.687Z,101387.80
2018-05-08T02:52:23.256Z,101384.23
2018-05-08T02:54:50.868Z,101382.20
2018-05-08T02:57:19.580Z,101382.70
2018-05-08T02:59:48.123Z,101375.36
2018-05-08T03:02:15.805Z,101371.42
2018-05-08T03:04:43.504Z,101372.59
2018-05-08T03:07:11.169Z,101372.06
2018-05-08T03:09:38.724Z,101368.58
2018-05-08T03:12:06.286Z,101359.85
2018-05-08T03:14:35.021Z,101355.02
2018-05-08T03:17:03.657Z,101360.17
2018-05-08T03:19:33.900Z,101353.14
2018-05-08T03:22:02.530Z,101353.91
2018-05-08T03:24:30.090Z,101348.20
2018-05-08T03:26:57.674Z,101340.31
2018-05-08T03:29:25.319Z,101346.84
2018-05-08T03:31:53.249Z,101342.98
2018-05-08T03:34:22.266Z,101340.17
2018-05-08T03:36:50.965Z,101342.48
2018-05-08T03:39:19.536Z,101339.45
2018-05-08T03:41:47.128Z,101334.66
2018-05-08T03:44:14.687Z,101335.22
2018-05-08T03:46:42.287Z,101329.70
2018-05-08T03:49:10.184Z,101328.09
2018-05-08T03:51:38.223Z,101330.23
2018-05-08T03:54:06.391Z,101333.27
2018-05-08T03:56:35.044Z,101331.94
2018-05-08T03:59:02.602Z,101331.94
2018-05-08T04:01:41.971Z,101329.70
2018-05-08T04:07:38.308Z,101324.43
2018-05-08T04:10:05.998Z,101326.16
2018-05-08T04:12:33.653Z,101323.05
2018-05-08T04:15:01.261Z,101326.11
2018-05-08T04:17:28.901Z,101320.95
2018-05-08T04:19:56.501Z,101329.59
2018-05-08T04:22:24.169Z,101329.59
2018-05-08T04:24:51.862Z,101340.11
2018-05-08T04:27:20.493Z,101335.45
2018-05-08T04:29:48.211Z,101331.03
2018-05-08T04:32:15.809Z,101333.19
2018-05-08T04:34:43.380Z,101329.33
2018-05-08T04:37:11.024Z,101332.81
2018-05-08T04:39:38.671Z,101333.19
2018-05-08T04:42:06.424Z,101338.41
2018-05-08T04:44:34.366Z,101334.89
2018-05-08T04:47:02.442Z,101331.41
2018-05-08T04:49:30.233Z,101335.34
2018-05-08T04:51:57.828Z,101334.87
2018-05-08T04:54:25.454Z,101330.53
2018-05-08T04:56:53.105Z,101322.05
2018-05-08T04:59:20.850Z,101320.82
2018-05-08T05:01:48.573Z,101312.97
2018-05-08T05:04:16.313Z,101319.52
2018-05-08T05:06:43.904Z,101309.02
2018-05-08T05:09:11.471Z,101306.34
2018-05-08T05:11:39.053Z,101307.17
2018-05-08T05:14:06.707Z,101308.03
2018-05-08T05:16:34.555Z,101309.23
2018-05-08T05:19:02.265Z,101309.53
2018-05-08T05:21:30.277Z,101305.08
2018-05-08T05:23:57.928Z,101305.05
2018-05-08T05:26:25.498Z,101303.75
2018-05-08T05:28:53.051Z,101300.63
2018-05-08T05:31:20.886Z,101300.66
2018-05-08T05:33:48.489Z,101298.05
2018-05-08T05:36:16.209Z,101287.19
2018-05-08T05:38:44.846Z,101289.23
2018-05-08T05:41:12.453Z,101286.58
2018-05-08T05:43:40.155Z,101286.50
2018-05-08T05:46:09.468Z,101287.78
2018-05-08T05:48:37.088Z,101282.22
2018-05-08T05:51:04.740Z,101286.05
2018-05-08T05:53:32.559Z,101290.73
2018-05-08T05:56:00.220Z,101296.35
2018-05-08T05:58:27.951Z,101296.45
2018-05-08T06:00:55.530Z,101298.34
2018-05-08T06:03:23.154Z,101305.72
2018-05-08T06:05:50.770Z,101305.72
2018-05-08T06:08:19.564Z,101305.19
2018-05-08T06:10:47.213Z,101314.22
2018-05-08T06:13:14.932Z,101315.50
2018-05-08T06:15:42.485Z,101310.28
2018-05-08T06:18:10.036Z,101318.08
2018-05-08T06:20:37.614Z,101314.06
2018-05-08T06:23:05.356Z,101315.71
2018-05-08T06:25:33.085Z,101313.48
2018-05-08T06:28:00.834Z,101308.77
2018-05-08T06:30:29.794Z,101314.36
2018-05-08T06:32:57.348Z,101316.14
2018-05-08T06:35:24.934Z,101317.39
2018-05-08T06:37:52.534Z,101317.34
2018-05-08T06:40:20.369Z,101326.45
2018-05-08T06:42:48.063Z,101329.98
2018-05-08T06:45:16.036Z,101323.06
2018-05-08T06:47:44.961Z,101318.62
2018-05-08T06:50:12.779Z,101319.39
2018-05-08T06:52:40.356Z,101312.28
2018-05-08T06:55:07.936Z,101317.47
2018-05-08T06:57:36.657Z,101320.86
2018-05-08T07:00:06.937Z,101325.11
2018-05-08T07:02:35.756Z,101329.38
2018-05-08T07:05:07.288Z,101326.38
2018-05-08T07:07:34.893Z,101329.54
2018-05-08T07:10:02.528Z,101327.14
2018-05-08T07:12:30.233Z,101324.42
2018-05-08T07:14:58.292Z,101333.45
2018-05-08T07:17:26.681Z,101328.95
2018-05-08T07:19:58.026Z,101325.44
2018-05-08T07:22:28.334Z,101314.48
2018-05-08T07:24:55.957Z,101313.50
2018-05-08T07:27:24.641Z,101310.78
2018-05-08T07:29:53.523Z,101313.02
2018-05-08T07:32:23.579Z,101311.60
2018-05-08T07:37:23.930Z,101314.28
2018-05-08T07:39:55.404Z,101315.37
2018-05-08T07:42:22.990Z,101314.70
2018-05-08T07:44:50.692Z,101315.36
2018-05-08T07:47:18.411Z,101327.45
2018-05-08T07:49:47.589Z,101325.72
2018-05-08T07:52:18.291Z,101318.48
2018-05-08T07:54:47.064Z,101308.52
2018-05-08T07:57:20.216Z,101309.17
2018-05-08T07:59:47.770Z,101315.45
2018-05-08T08:02:15.619Z,101324.23
2018-05-08T08:04:43.243Z,101324.68
2018-05-08T08:07:12.135Z,101337.21
2018-05-08T08:09:40.065Z,101333.06
2018-05-08T08:12:08.279Z,101334.42
2018-05-08T08:14:36.105Z,101326.30
2018-05-08T08:17:03.699Z,101326.25
2018-05-08T08:19:31.212Z,101313.75
2018-05-08T08:21:58.859Z,101317.78
2018-05-08T08:24:30.104Z,101317.97
2018-05-08T08:27:00.294Z,101312.15
2018-05-08T08:29:28.056Z,101298.53
2018-05-08T08:31:56.057Z,101302.63
2018-05-08T08:34:23.723Z,101310.27
2018-05-08T08:36:51.444Z,101303.12
2018-05-08T08:39:19.124Z,101295.86
2018-05-08T08:41:48.073Z,101293.12
2018-05-08T08:44:18.472Z,101290.33
2018-05-08T08:46:47.632Z,101289.61
2018-05-08T08:49:16.353Z,101281.13
2018-05-08T08:51:43.918Z,101276.05
2018-05-08T08:54:11.640Z,101279.50
2018-05-08T08:56:39.275Z,101296.41
2018-05-08T08:59:08.235Z,101300.39
2018-05-08T09:01:35.861Z,101297.32
2018-05-08T09:04:04.150Z,101289.92
2018-05-08T09:06:31.751Z,101284.92
2018-05-08T09:08:59.369Z,101271.52
2018-05-08T09:11:26.996Z,101267.92
2018-05-08T09:13:54.732Z,101276.05
2018-05-08T09:16:27.320Z,101276.88
2018-05-08T09:18:55.915Z,101276.64
2018-05-08T09:21:30.603Z,101267.47
2018-05-08T09:23:58.187Z,101270.73
2018-05-08T09:26:25.791Z,101265.39
2018-05-08T09:28:54.177Z,101262.00
2018-05-08T09:31:21.835Z,101258.52
2018-05-08T09:33:50.481Z,101248.19
2018-05-08T09:36:19.747Z,101244.02
2018-05-08T09:38:47.939Z,101242.31
2018-05-08T09:41:15.524Z,101240.85
2018-05-08T09:43:43.119Z,101241.09
2018-05-08T09:46:10.668Z,101238.95
2018-05-08T09:48:38.242Z,101237.98
2018-05-08T09:51:08.429Z,101242.45
2018-05-08T09:53:39.207Z,101227.94
2018-05-08T09:56:12.121Z,101228.40
2018-05-08T09:58:39.679Z,101228.77
2018-05-08T10:01:07.335Z,101231.67
2018-05-08T10:03:34.888Z,101226.79
2018-05-08T10:06:02.531Z,101231.59
2018-05-08T10:08:31.721Z,101231.60
2018-05-08T10:11:02.581Z,101230.92
2018-05-08T10:13:35.254Z,101228.41
2018-05-08T10:16:02.981Z,101223.69
2018-05-08T10:18:30.499Z,101228.48
2018-05-08T10:20:57.998Z,101237.89
2018-05-08T10:23:25.686Z,101239.14
2018-05-08T10:25:54.072Z,101244.48
2018-05-08T10:28:22.579Z,101235.38
2018-05-08T10:30:50.467Z,101244.79
2018-05-08T10:33:17.990Z,101242.75
2018-05-08T10:35:45.515Z,101249.08
2018-05-08T10:38:13.059Z,101248.38
2018-05-08T10:40:40.701Z,101239.63
2018-05-08T10:43:08.331Z,101237.92
2018-05-08T10:45:36.188Z,101242.73
2018-05-08T10:48:03.770Z,101231.39
2018-05-08T10:50:31.353Z,101229.57
2018-05-08T10:52:58.975Z,101244.55
2018-05-08T10:55:26.523Z,101236.50
2018-05-08T10:57:54.194Z,101234.03
2018-05-08T11:00:22.443Z,101227.78
2018-05-08T11:02:50.627Z,101232.25
2018-05-08T11:05:19.865Z,101238.52
2018-05-08T11:07:47.380Z,101242.91
2018-05-08T11:10:14.938Z,101233.24
2018-05-08T11:12:42.455Z,101236.67
2018-05-08T11:15:09.983Z,101236.45
2018-05-08T11:17:38.560Z,101233.73
2018-05-08T11:20:06.459Z,101231.90
2018-05-08T11:22:34.325Z,101227.94
2018-05-08T11:25:01.858Z,101230.69
2018-05-08T11:27:29.342Z,101233.54
2018-05-08T11:29:57.307Z,101226.04
2018-05-08T11:32:24.903Z,101228.76
2018-05-08T11:34:52.533Z,101224.83
2018-05-08T11:37:21.828Z,101228.73
2018-05-08T11:39:52.782Z,101228.82
2018-05-08T11:42:20.645Z,101223.78
2018-05-08T11:44:48.659Z,101222.14
2018-05-08T11:47:16.227Z,101224.47
2018-05-08T11:49:43.890Z,101229.80
2018-05-08T11:52:12.303Z,101228.31
2018-05-08T11:54:39.974Z,101237.67
2018-05-08T11:57:08.354Z,101226.94
2018-05-08T11:59:36.021Z,101230.17
2018-05-08T12:02:03.579Z,101234.80
2018-05-08T12:04:31.312Z,101225.80
2018-05-08T12:06:59.096Z,101223.25
2018-05-08T12:09:38.233Z,101225.44
2018-05-08T12:12:11.698Z,101224.55
2018-05-08T12:17:41.930Z,101233.12
2018-05-08T12:20:09.494Z,101228.04
2018-05-08T12:22:37.103Z,101226.67
2018-05-08T12:25:07.077Z,101228.04
2018-05-08T12:27:35.343Z,101235.04
2018-05-08T12:30:04.425Z,101258.44
2018-05-08T12:32:32.151Z,101248.38
2018-05-08T12:34:59.748Z,101252.91
2018-05-08T12:37:27.299Z,101255.62
2018-05-08T12:39:55.220Z,101250.42
2018-05-08T12:42:26.602Z,101256.32
2018-05-08T12:44:58.412Z,101265.96
2018-05-08T12:47:31.608Z,101272.25
2018-05-08T12:50:03.842Z,101269.33
2018-05-08T12:52:34.680Z,101276.78
2018-05-08T12:55:02.247Z,101268.34
2018-05-08T12:57:30.823Z,101276.39
2018-05-08T13:00:03.366Z,101288.83
2018-05-08T13:05:07.601Z,101285.78
2018-05-08T13:07:39.569Z,101283.44
2018-05-08T13:10:07.099Z,101286.42
2018-05-08T13:12:34.756Z,101278.08
2018-05-08T13:15:02.475Z,101274.70
2018-05-08T13:17:32.398Z,101280.52
2018-05-08T13:20:00.541Z,101277.52
2018-05-08T13:25:03.849Z,101281.26
2018-05-08T13:27:32.392Z,101299.83
2018-05-08T13:29:59.940Z,101297.08
2018-05-08T13:32:27.617Z,101305.77
2018-05-08T13:34:58.477Z,101305.13
2018-05-08T13:37:31.989Z,101313.50
2018-05-08T13:40:00.384Z,101317.49
2018-05-08T13:42:28.505Z,101318.24
2018-05-08T13:44:56.064Z,101316.84
2018-05-08T13:47:23.603Z,101314.91
2018-05-08T13:49:51.144Z,101318.30
2018-05-08T13:52:22.557Z,101308.22
2018-05-08T13:54:54.371Z,101317.28
2018-05-08T13:57:22.763Z,101320.89
2018-05-08T13:59:51.531Z,101330.07
2018-05-08T14:02:19.074Z,101321.29
2018-05-08T14:04:46.607Z,101323.58
2018-05-08T14:07:14.143Z,101325.13
2018-05-08T14:09:41.867Z,101323.94
2018-05-08T14:12:09.462Z,101338.91
2018-05-08T14:14:37.084Z,101330.91
2018-05-08T14:17:04.639Z,101334.11
2018-05-08T14:19:32.206Z,101351.33
2018-05-08T14:21:59.813Z,101335.23
2018-05-08T14:24:27.554Z,101335.89
2018-05-08T14:26:55.185Z,101321.64
2018-05-08T14:29:22.771Z,101327.44
2018-05-08T14:31:54.915Z,101331.14
2018-05-08T14:34:22.477Z,101329.30
2018-05-08T14:36:50.010Z,101338.92
2018-05-08T14:39:17.575Z,101332.87
2018-05-08T14:41:45.299Z,101328.70
2018-05-08T14:44:12.913Z,101330.91
2018-05-08T14:46:40.492Z,101320.92
2018-05-08T14:49:08.161Z,101329.52
2018-05-08T14:51:35.699Z,101335.59
2018-05-08T14:54:03.286Z,101336.56
2018-05-08T14:56:30.849Z,101321.48
2018-05-08T14:58:58.545Z,101323.75
2018-05-08T15:01:26.365Z,101327.52
2018-05-08T15:03:54.808Z,101339.88
2018-05-08T15:06:24.143Z,101321.63
2018-05-08T15:08:51.795Z,101322.34
2018-05-08T15:11:19.399Z,101322.05
2018-05-08T15:13:46.940Z,101317.09
2018-05-08T15:16:14.714Z,101314.95
2018-05-08T15:18:42.349Z,101317.59
2018-05-08T15:21:10.302Z,101304.91
2018-05-08T15:23:38.191Z,101310.81
2018-05-08T15:26:05.728Z,101303.30
2018-05-08T15:28:33.272Z,101311.80
2018-05-08T15:31:00.827Z,101304.41
2018-05-08T15:33:28.624Z,101297.69
2018-05-08T15:35:56.404Z,101305.80
2018-05-08T15:38:24.899Z,101312.31
2018-05-08T15:40:52.540Z,101305.00
2018-05-08T15:43:20.080Z,101298.98
2018-05-08T15:45:47.651Z,101292.55
2018-05-08T15:48:17.358Z,101296.36
2018-05-08T15:50:44.949Z,101294.80
2018-05-08T15:53:12.573Z,101306.12
2018-05-08T15:55:40.256Z,101309.09
2018-05-08T15:58:12.276Z,101310.53
2018-05-08T16:00:39.801Z,101321.16
2018-05-08T16:03:07.289Z,101313.24
2018-05-08T16:05:35.025Z,101339.78
2018-05-08T16:08:02.643Z,101323.80
2018-05-08T16:10:32.709Z,101324.61
2018-05-08T16:13:02.639Z,101336.92
2018-05-08T16:15:31.575Z,101324.41
2018-05-08T16:17:59.152Z,101322.49
2018-05-08T16:20:26.755Z,101325.41
2018-05-08T16:22:54.321Z,101327.27
2018-05-08T16:25:22.153Z,101323.81
2018-05-08T16:27:50.932Z,101317.05
2018-05-08T16:30:19.536Z,101320.34
2018-05-08T16:32:47.888Z,101314.52
2018-05-08T16:35:15.567Z,101311.73
2018-05-08T16:37:43.151Z,101312.72
2018-05-08T16:40:10.659Z,101324.05
2018-05-08T16:42:38.451Z,101323.25
2018-05-08T16:45:07.704Z,101333.27
2018-05-08T16:47:35.397Z,101331.48
2018-05-08T16:50:03.179Z,101330.34
2018-05-08T16:52:30.715Z,101322.45
2018-05-08T16:54:58.227Z,101330.44
2018-05-08T16:57:25.824Z,101343.42
2018-05-08T16:59:53.703Z,101335.03
2018-05-08T17:02:22.276Z,101344.86
2018-05-08T17:07:27.353Z,101332.97
2018-05-08T17:09:55.009Z,101333.67
2018-05-08T17:12:22.599Z,101335.67
2018-05-08T17:14:50.249Z,101333.45
2018-05-08T17:17:18.227Z,101331.95
2018-05-08T17:19:46.883Z,101325.52
2018-05-08T17:27:26.327Z,101323.33
2018-05-08T17:29:53.913Z,101322.81
2018-05-08T17:32:21.462Z,101320.78
2018-05-08T17:34:49.319Z,101307.47
2018-05-08T17:42:24.427Z,101300.45
2018-05-08T17:44:52.774Z,101314.87
2018-05-08T17:47:20.333Z,101301.03
2018-05-08T17:49:47.861Z,101307.40
2018-05-08T17:52:15.442Z,101320.03
2018-05-08T17:54:43.902Z,101311.95
2018-05-08T18:02:17.355Z,101306.81
2018-05-08T18:04:44.935Z,101320.00
2018-05-08T18:07:12.480Z,101319.22
2018-05-08T18:09:40.111Z,101316.24
2018-05-08T18:14:46.763Z,101306.82
2018-05-08T18:17:15.535Z,101297.83
2018-05-08T18:19:43.177Z,101309.02
2018-05-08T18:22:10.743Z,101309.09
2018-05-08T18:24:38.292Z,101316.41
2018-05-08T18:29:44.056Z,101323.41
2018-05-08T18:34:50.672Z,101341.74
2018-05-08T18:37:18.327Z,101337.16
2018-05-08T18:39:45.851Z,101340.47
2018-05-08T18:42:13.444Z,101341.31
2018-05-08T18:44:43.570Z,101346.69
2018-05-08T18:47:12.248Z,101345.04
2018-05-08T18:49:50.795Z,101352.72
2018-05-08T18:55:03.443Z,101353.76
2018-05-08T18:57:30.983Z,101362.70
2018-05-08T19:00:04.226Z,101362.63
2018-05-08T19:05:07.684Z,101374.25
2018-05-08T19:12:41.468Z,101366.42
2018-05-08T19:15:14.760Z,101367.67
2018-05-08T19:17:42.588Z,101370.84
2018-05-08T19:22:43.101Z,101364.70
2018-05-08T19:27:50.968Z,101377.14
2018-05-08T19:30:24.042Z,101371.77
2018-05-08T19:32:51.660Z,101376.48
2018-05-08T19:35:24.909Z,101378.99
2018-05-08T19:46:35.937Z,101394.41
2018-05-08T19:49:03.513Z,101397.39
2018-05-08T19:51:31.129Z,101401.72
2018-05-08T20:01:47.842Z,101375.05
2018-05-08T20:04:15.457Z,101380.46
2018-05-08T20:06:43.059Z,101386.79
2018-05-08T20:09:10.647Z,101385.75
2018-05-08T20:16:44.712Z,101389.41
2018-05-08T20:19:12.764Z,101390.47
2018-05-08T20:21:40.435Z,101391.52
2018-05-08T20:24:07.995Z,101394.00
2018-05-08T20:26:35.607Z,101388.97
2018-05-08T20:29:03.323Z,101389.57
2018-05-08T20:31:31.860Z,101401.05
2018-05-08T20:34:00.310Z,101410.75
2018-05-08T20:36:28.203Z,101403.88
2018-05-08T20:38:55.911Z,101410.13
2018-05-08T20:41:23.503Z,101413.28
2018-05-08T20:43:51.052Z,101408.98
2018-05-08T20:48:51.959Z,101410.44
2018-05-08T20:51:20.582Z,101405.38
2018-05-08T20:56:19.791Z,101411.74
2018-05-08T20:58:47.419Z,101411.91
2018-05-08T21:01:15.195Z,101405.08
2018-05-08T21:06:17.778Z,101392.27
2018-05-08T21:11:17.772Z,101389.42
2018-05-08T21:13:45.400Z,101391.21
2018-05-08T21:16:13.092Z,101395.69
2018-05-08T21:18:40.709Z,101394.16
2018-05-08T21:21:08.460Z,101391.69
2018-05-08T21:23:36.104Z,101396.64
2018-05-08T21:26:04.608Z,101392.41
2018-05-08T21:28:37.791Z,101399.37
2018-05-08T21:31:10.887Z,101387.18
2018-05-08T21:33:38.428Z,101382.06
2018-05-08T21:36:06.106Z,101390.47
2018-05-08T21:41:07.917Z,101382.34
2018-05-08T21:46:08.211Z,101376.08
2018-05-08T21:48:35.803Z,101371.77
2018-05-08T21:51:03.371Z,101371.42
2018-05-08T21:53:31.023Z,101369.77
2018-05-08T21:58:32.203Z,101371.74
2018-05-08T22:01:00.846Z,101381.04
2018-05-08T22:03:28.885Z,101378.09
2018-05-08T22:05:56.499Z,101387.76
2018-05-08T22:08:24.011Z,101387.38
2018-05-08T22:10:51.863Z,101382.34
2018-05-08T22:13:20.313Z,101388.05
2018-05-08T22:15:48.609Z,101384.64
2018-05-08T22:18:16.223Z,101386.83
2018-05-08T22:20:43.768Z,101386.84
2018-05-08T22:23:11.279Z,101379.92
2018-05-08T22:25:38.792Z,101386.05
2018-05-08T22:28:06.454Z,101383.92
2018-05-08T22:30:34.847Z,101380.88
2018-05-08T22:33:03.575Z,101381.81
2018-05-08T22:35:31.920Z,101385.34
2018-05-08T22:37:59.470Z,101375.97
2018-05-08T22:40:27.028Z,101377.86
2018-05-08T22:42:54.575Z,101377.53
2018-05-08T22:45:22.182Z,101372.87
2018-05-08T22:47:50.812Z,101373.41
2018-05-08T22:50:18.860Z,101377.02
2018-05-08T22:52:47.628Z,101371.50
2018-05-08T22:55:15.198Z,101368.24
2018-05-08T22:57:42.890Z,101366.72
2018-05-08T23:00:10.413Z,101371.64
2018-05-08T23:02:38.031Z,101365.34
2018-05-08T23:05:07.699Z,101359.03
2018-05-08T23:07:36.375Z,101355.77
2018-05-08T23:10:04.027Z,101357.23
2018-05-08T23:12:31.579Z,101354.72
2018-05-08T23:14:59.103Z,101353.53
2018-05-08T23:17:26.703Z,101361.02
2018-05-08T23:19:54.474Z,101358.98
2018-05-08T23:22:23.250Z,101370.41
2018-05-08T23:24:55.640Z,101367.91
2018-05-08T23:27:24.703Z,101363.66
2018-05-08T23:29:52.315Z,101360.70
2018-05-08T23:32:19.910Z,101362.08
2018-05-08T23:34:47.470Z,101366.92
2018-05-08T23:37:16.044Z,101368.25
2018-05-08T23:39:44.990Z,101363.56
2018-05-08T23:42:14.680Z,101361.92
2018-05-08T23:44:42.851Z,101359.36
2018-05-08T23:47:10.399Z,101356.93
2018-05-08T23:49:37.945Z,101363.06
2018-05-08T23:52:05.586Z,101367.05
2018-05-08T23:54:34.138Z,101366.22
2018-05-08T23:57:02.077Z,101363.73
2018-05-08T23:59:31.583Z,101362.53
